sensor_id;sensor_type;location;lat;lon;timestamp;pressure;altitude;pressure_sealevel;temperature;humidity
76378;BME280;65200;49.500;8.654;2024-03-25T00:00:29;99715.19;;;9.90;64.81
76378;BME280;65200;49.500;8.654;2024-03-25T00:02:55;99713.91;;;9.79;65.63
76378;BME280;65200;49.500;8.654;2024-03-25T00:05:23;99723.22;;;9.42;66.47
76378;BME280;65200;49.500;8.654;2024-03-25T00:07:51;99715.22;;;9.49;66.79
76378;BME280;65200;49.500;8.654;2024-03-25T00:10:20;99717.34;;;9.60;66.75
76378;BME280;65200;49.500;8.654;2024-03-25T00:12:47;99716.78;;;9.84;64.65
76378;BME280;65200;49.500;8.654;2024-03-25T00:15:18;99721.47;;;9.62;65.08
76378;BME280;65200;49.500;8.654;2024-03-25T00:17:46;99718.47;;;9.85;65.29
76378;BME280;65200;49.500;8.654;2024-03-25T00:20:12;99724.72;;;9.58;66.17
76378;BME280;65200;49.500;8.654;2024-03-25T00:22:43;99722.50;;;9.68;65.83
76378;BME280;65200;49.500;8.654;2024-03-25T00:25:09;99720.06;;;9.73;66.52
76378;BME280;65200;49.500;8.654;2024-03-25T00:27:36;99719.78;;;10.15;65.35
76378;BME280;65200;49.500;8.654;2024-03-25T00:30:03;99722.53;;;9.74;66.54
76378;BME280;65200;49.500;8.654;2024-03-25T00:32:30;99715.00;;;10.04;65.21
76378;BME280;65200;49.500;8.654;2024-03-25T00:34:56;99716.00;;;9.90;64.58
76378;BME280;65200;49.500;8.654;2024-03-25T00:37:22;99717.59;;;10.64;63.23
76378;BME280;65200;49.500;8.654;2024-03-25T00:39:50;99717.66;;;9.98;64.31
76378;BME280;65200;49.500;8.654;2024-03-25T00:42:17;99712.22;;;10.51;63.67
76378;BME280;65200;49.500;8.654;2024-03-25T00:44:43;99717.78;;;10.63;63.09
76378;BME280;65200;49.500;8.654;2024-03-25T00:47:10;99721.47;;;10.16;63.85
76378;BME280;65200;49.500;8.654;2024-03-25T00:49:36;99715.63;;;10.06;65.58
76378;BME280;65200;49.500;8.654;2024-03-25T00:52:03;99723.22;;;9.90;66.16
76378;BME280;65200;49.500;8.654;2024-03-25T00:54:29;99727.00;;;10.08;65.50
76378;BME280;65200;49.500;8.654;2024-03-25T00:56:57;99722.72;;;10.46;63.21
76378;BME280;65200;49.500;8.654;2024-03-25T00:59:23;99723.56;;;10.47;63.60
76378;BME280;65200;49.500;8.654;2024-03-25T01:01:50;99725.31;;;10.07;64.83
76378;BME280;65200;49.500;8.654;2024-03-25T01:04:15;99725.06;;;9.96;64.33
76378;BME280;65200;49.500;8.654;2024-03-25T01:06:42;99720.25;;;10.51;63.71
76378;BME280;65200;49.500;8.654;2024-03-25T01:09:08;99722.06;;;10.25;63.81
76378;BME280;65200;49.500;8.654;2024-03-25T01:11:35;99715.75;;;10.45;63.60
76378;BME280;65200;49.500;8.654;2024-03-25T01:14:02;99722.69;;;10.20;63.56
76378;BME280;65200;49.500;8.654;2024-03-25T01:16:29;99720.09;;;9.80;64.61
76378;BME280;65200;49.500;8.654;2024-03-25T01:18:55;99724.31;;;9.54;65.60
76378;BME280;65200;49.500;8.654;2024-03-25T01:21:23;99711.66;;;9.89;65.18
76378;BME280;65200;49.500;8.654;2024-03-25T01:23:49;99712.28;;;9.85;64.97
76378;BME280;65200;49.500;8.654;2024-03-25T01:26:16;99714.28;;;9.69;64.93
76378;BME280;65200;49.500;8.654;2024-03-25T01:28:42;99714.66;;;9.60;65.31
76378;BME280;65200;49.500;8.654;2024-03-25T01:31:12;99718.81;;;9.69;64.95
76378;BME280;65200;49.500;8.654;2024-03-25T01:33:39;99724.78;;;9.30;66.58
76378;BME280;65200;49.500;8.654;2024-03-25T01:36:06;99728.88;;;9.20;66.06
76378;BME280;65200;49.500;8.654;2024-03-25T01:38:32;99721.91;;;9.32;65.67
76378;BME280;65200;49.500;8.654;2024-03-25T01:41:07;99719.44;;;9.30;66.13
76378;BME280;65200;49.500;8.654;2024-03-25T01:43:32;99722.41;;;9.48;65.65
76378;BME280;65200;49.500;8.654;2024-03-25T01:45:59;99724.00;;;9.30;65.92
76378;BME280;65200;49.500;8.654;2024-03-25T01:48:26;99721.56;;;9.35;67.00
76378;BME280;65200;49.500;8.654;2024-03-25T01:50:53;99717.41;;;9.32;65.55
76378;BME280;65200;49.500;8.654;2024-03-25T01:53:19;99714.53;;;9.34;65.15
76378;BME280;65200;49.500;8.654;2024-03-25T01:55:46;99721.50;;;9.28;65.20
76378;BME280;65200;49.500;8.654;2024-03-25T01:58:13;99725.75;;;9.16;67.00
76378;BME280;65200;49.500;8.654;2024-03-25T02:00:41;99723.91;;;9.17;66.21
76378;BME280;65200;49.500;8.654;2024-03-25T02:03:08;99722.31;;;9.29;67.07
76378;BME280;65200;49.500;8.654;2024-03-25T02:05:36;99717.81;;;9.29;65.53
76378;BME280;65200;49.500;8.654;2024-03-25T02:08:03;99719.22;;;9.25;66.92
76378;BME280;65200;49.500;8.654;2024-03-25T02:10:30;99723.34;;;9.28;66.07
76378;BME280;65200;49.500;8.654;2024-03-25T02:12:55;99724.47;;;9.40;64.98
76378;BME280;65200;49.500;8.654;2024-03-25T02:15:25;99723.25;;;9.49;65.49
76378;BME280;65200;49.500;8.654;2024-03-25T02:17:52;99719.47;;;9.37;64.92
76378;BME280;65200;49.500;8.654;2024-03-25T02:20:18;99725.25;;;9.40;64.42
76378;BME280;65200;49.500;8.654;2024-03-25T02:22:46;99715.56;;;9.33;66.39
76378;BME280;65200;49.500;8.654;2024-03-25T02:25:14;99715.66;;;9.12;65.60
76378;BME280;65200;49.500;8.654;2024-03-25T02:27:43;99720.22;;;9.18;66.18
76378;BME280;65200;49.500;8.654;2024-03-25T02:30:10;99713.38;;;9.09;66.24
76378;BME280;65200;49.500;8.654;2024-03-25T02:32:38;99720.41;;;9.16;66.50
76378;BME280;65200;49.500;8.654;2024-03-25T02:35:07;99729.03;;;9.12;65.31
76378;BME280;65200;49.500;8.654;2024-03-25T02:37:33;99715.84;;;9.10;65.46
76378;BME280;65200;49.500;8.654;2024-03-25T02:40:01;99717.94;;;9.15;65.70
76378;BME280;65200;49.500;8.654;2024-03-25T02:42:28;99722.22;;;8.82;67.38
76378;BME280;65200;49.500;8.654;2024-03-25T02:44:57;99711.63;;;8.67;67.19
76378;BME280;65200;49.500;8.654;2024-03-25T02:47:22;99719.94;;;8.79;66.24
76378;BME280;65200;49.500;8.654;2024-03-25T02:49:49;99712.81;;;8.86;67.43
76378;BME280;65200;49.500;8.654;2024-03-25T02:52:15;99707.63;;;8.78;67.87
76378;BME280;65200;49.500;8.654;2024-03-25T02:54:45;99713.06;;;8.91;65.98
76378;BME280;65200;49.500;8.654;2024-03-25T02:57:11;99711.88;;;8.72;66.92
76378;BME280;65200;49.500;8.654;2024-03-25T02:59:38;99711.69;;;8.74;67.31
76378;BME280;65200;49.500;8.654;2024-03-25T03:02:05;99714.00;;;8.56;66.73
76378;BME280;65200;49.500;8.654;2024-03-25T03:04:31;99711.28;;;8.77;66.59
76378;BME280;65200;49.500;8.654;2024-03-25T03:06:57;99709.94;;;8.60;66.24
76378;BME280;65200;49.500;8.654;2024-03-25T03:09:24;99710.81;;;8.67;67.39
76378;BME280;65200;49.500;8.654;2024-03-25T03:11:49;99702.75;;;8.60;67.63
76378;BME280;65200;49.500;8.654;2024-03-25T03:14:16;99707.28;;;8.39;67.86
76378;BME280;65200;49.500;8.654;2024-03-25T03:16:45;99702.25;;;8.50;67.83
76378;BME280;65200;49.500;8.654;2024-03-25T03:19:13;99696.72;;;8.52;68.21
76378;BME280;65200;49.500;8.654;2024-03-25T03:21:39;99688.97;;;8.57;66.39
76378;BME280;65200;49.500;8.654;2024-03-25T03:24:06;99697.63;;;8.38;67.77
76378;BME280;65200;49.500;8.654;2024-03-25T03:26:31;99696.50;;;8.25;68.74
76378;BME280;65200;49.500;8.654;2024-03-25T03:28:58;99700.94;;;8.40;67.07
76378;BME280;65200;49.500;8.654;2024-03-25T03:31:25;99688.22;;;8.42;67.06
76378;BME280;65200;49.500;8.654;2024-03-25T03:33:52;99694.78;;;8.67;66.95
76378;BME280;65200;49.500;8.654;2024-03-25T03:36:23;99699.66;;;8.14;67.64
76378;BME280;65200;49.500;8.654;2024-03-25T03:38:51;99696.22;;;8.20;68.68
76378;BME280;65200;49.500;8.654;2024-03-25T03:41:18;99693.41;;;8.07;68.62
76378;BME280;65200;49.500;8.654;2024-03-25T03:43:44;99700.16;;;8.24;67.97
76378;BME280;65200;49.500;8.654;2024-03-25T03:46:10;99705.78;;;8.15;69.33
76378;BME280;65200;49.500;8.654;2024-03-25T03:48:37;99702.78;;;8.39;69.01
76378;BME280;65200;49.500;8.654;2024-03-25T03:51:03;99709.00;;;8.46;68.50
76378;BME280;65200;49.500;8.654;2024-03-25T03:53:32;99700.81;;;8.26;67.81
76378;BME280;65200;49.500;8.654;2024-03-25T03:55:59;99698.25;;;8.40;67.20
76378;BME280;65200;49.500;8.654;2024-03-25T03:58:27;99710.59;;;8.41;68.51
76378;BME280;65200;49.500;8.654;2024-03-25T04:00:53;99703.88;;;8.23;68.79
76378;BME280;65200;49.500;8.654;2024-03-25T04:03:20;99705.38;;;8.54;67.81
76378;BME280;65200;49.500;8.654;2024-03-25T04:05:46;99695.84;;;8.45;68.08
76378;BME280;65200;49.500;8.654;2024-03-25T04:08:13;99715.00;;;8.27;67.97
76378;BME280;65200;49.500;8.654;2024-03-25T04:10:40;99707.69;;;8.36;67.71
76378;BME280;65200;49.500;8.654;2024-03-25T04:13:07;99708.41;;;8.08;68.47
76378;BME280;65200;49.500;8.654;2024-03-25T04:15:33;99712.63;;;8.39;68.32
76378;BME280;65200;49.500;8.654;2024-03-25T04:18:00;99717.69;;;8.55;68.25
76378;BME280;65200;49.500;8.654;2024-03-25T04:20:26;99708.44;;;8.29;68.59
76378;BME280;65200;49.500;8.654;2024-03-25T04:22:54;99708.28;;;8.16;69.33
76378;BME280;65200;49.500;8.654;2024-03-25T04:25:19;99701.13;;;8.66;68.30
76378;BME280;65200;49.500;8.654;2024-03-25T04:27:47;99709.78;;;8.68;67.04
76378;BME280;65200;49.500;8.654;2024-03-25T04:30:14;99707.94;;;8.41;68.72
76378;BME280;65200;49.500;8.654;2024-03-25T04:32:40;99707.75;;;8.42;69.12
76378;BME280;65200;49.500;8.654;2024-03-25T04:35:07;99710.47;;;8.27;68.06
76378;BME280;65200;49.500;8.654;2024-03-25T04:37:35;99711.13;;;8.15;68.17
76378;BME280;65200;49.500;8.654;2024-03-25T04:40:01;99711.47;;;8.26;69.45
76378;BME280;65200;49.500;8.654;2024-03-25T04:42:26;99711.19;;;8.21;70.11
76378;BME280;65200;49.500;8.654;2024-03-25T04:44:54;99709.94;;;8.60;68.41
76378;BME280;65200;49.500;8.654;2024-03-25T04:47:20;99714.34;;;8.74;68.15
76378;BME280;65200;49.500;8.654;2024-03-25T04:49:46;99711.66;;;8.46;68.55
76378;BME280;65200;49.500;8.654;2024-03-25T04:52:12;99715.69;;;8.36;68.43
76378;BME280;65200;49.500;8.654;2024-03-25T04:54:38;99716.69;;;8.34;68.59
76378;BME280;65200;49.500;8.654;2024-03-25T04:57:04;99715.88;;;8.34;69.08
76378;BME280;65200;49.500;8.654;2024-03-25T04:59:31;99714.22;;;8.33;67.77
76378;BME280;65200;49.500;8.654;2024-03-25T05:01:58;99707.75;;;8.42;68.31
76378;BME280;65200;49.500;8.654;2024-03-25T05:04:24;99716.91;;;8.18;68.75
76378;BME280;65200;49.500;8.654;2024-03-25T05:06:50;99721.41;;;8.18;68.80
76378;BME280;65200;49.500;8.654;2024-03-25T05:09:16;99729.41;;;8.11;68.95
76378;BME280;65200;49.500;8.654;2024-03-25T05:11:42;99720.78;;;8.30;67.46
76378;BME280;65200;49.500;8.654;2024-03-25T05:14:09;99720.22;;;8.20;68.64
76378;BME280;65200;49.500;8.654;2024-03-25T05:16:34;99740.22;;;8.24;67.69
76378;BME280;65200;49.500;8.654;2024-03-25T05:19:01;99732.66;;;8.28;69.08
76378;BME280;65200;49.500;8.654;2024-03-25T05:21:27;99737.59;;;7.95;70.18
76378;BME280;65200;49.500;8.654;2024-03-25T05:23:53;99737.09;;;8.21;68.38
76378;BME280;65200;49.500;8.654;2024-03-25T05:26:19;99739.28;;;7.96;70.38
76378;BME280;65200;49.500;8.654;2024-03-25T05:28:45;99738.56;;;8.23;68.43
76378;BME280;65200;49.500;8.654;2024-03-25T05:31:10;99735.06;;;8.44;67.85
76378;BME280;65200;49.500;8.654;2024-03-25T05:33:36;99736.59;;;8.32;68.57
76378;BME280;65200;49.500;8.654;2024-03-25T05:36:04;99735.63;;;8.40;68.24
76378;BME280;65200;49.500;8.654;2024-03-25T05:38:30;99741.38;;;8.37;68.28
76378;BME280;65200;49.500;8.654;2024-03-25T05:40:56;99751.72;;;8.46;66.62
76378;BME280;65200;49.500;8.654;2024-03-25T05:43:21;99750.63;;;8.19;68.89
76378;BME280;65200;49.500;8.654;2024-03-25T05:45:51;99748.13;;;8.18;67.95
76378;BME280;65200;49.500;8.654;2024-03-25T05:48:17;99747.13;;;8.19;68.98
76378;BME280;65200;49.500;8.654;2024-03-25T05:50:43;99753.63;;;7.95;70.47
76378;BME280;65200;49.500;8.654;2024-03-25T05:53:13;99755.06;;;8.12;68.86
76378;BME280;65200;49.500;8.654;2024-03-25T05:55:39;99751.53;;;8.26;68.75
76378;BME280;65200;49.500;8.654;2024-03-25T05:58:05;99748.34;;;8.38;68.96
76378;BME280;65200;49.500;8.654;2024-03-25T06:00:30;99748.81;;;8.05;69.76
76378;BME280;65200;49.500;8.654;2024-03-25T06:02:56;99745.28;;;8.19;70.43
76378;BME280;65200;49.500;8.654;2024-03-25T06:05:22;99744.66;;;8.39;70.17
76378;BME280;65200;49.500;8.654;2024-03-25T06:07:48;99753.50;;;8.60;67.71
76378;BME280;65200;49.500;8.654;2024-03-25T06:10:16;99750.66;;;8.41;69.30
76378;BME280;65200;49.500;8.654;2024-03-25T06:12:41;99752.63;;;8.32;69.87
76378;BME280;65200;49.500;8.654;2024-03-25T06:15:08;99759.28;;;8.91;66.46
76378;BME280;65200;49.500;8.654;2024-03-25T06:17:34;99760.44;;;9.37;66.02
76378;BME280;65200;49.500;8.654;2024-03-25T06:19:59;99762.25;;;10.25;62.48
76378;BME280;65200;49.500;8.654;2024-03-25T06:22:25;99749.53;;;10.59;61.73
76378;BME280;65200;49.500;8.654;2024-03-25T06:24:51;99754.66;;;11.20;59.66
76378;BME280;65200;49.500;8.654;2024-03-25T06:27:18;99753.03;;;11.05;59.08
76378;BME280;65200;49.500;8.654;2024-03-25T06:29:44;99745.19;;;10.32;61.78
76378;BME280;65200;49.500;8.654;2024-03-25T06:32:10;99749.13;;;10.95;59.98
76378;BME280;65200;49.500;8.654;2024-03-25T06:34:55;99755.31;;;10.89;59.93
76378;BME280;65200;49.500;8.654;2024-03-25T06:37:20;99756.53;;;10.80;60.16
76378;BME280;65200;49.500;8.654;2024-03-25T06:39:46;99761.06;;;11.19;59.48
76378;BME280;65200;49.500;8.654;2024-03-25T06:42:12;99758.13;;;11.40;58.59
76378;BME280;65200;49.500;8.654;2024-03-25T06:44:39;99756.16;;;10.89;59.42
76378;BME280;65200;49.500;8.654;2024-03-25T06:47:05;99763.31;;;10.30;61.43
76378;BME280;65200;49.500;8.654;2024-03-25T06:49:31;99763.94;;;11.30;58.92
76378;BME280;65200;49.500;8.654;2024-03-25T06:51:57;99762.69;;;11.39;58.76
76378;BME280;65200;49.500;8.654;2024-03-25T06:54:25;99770.06;;;9.72;63.69
76378;BME280;65200;49.500;8.654;2024-03-25T06:56:53;99770.38;;;10.83;60.09
76378;BME280;65200;49.500;8.654;2024-03-25T06:59:19;99774.44;;;9.80;62.14
76378;BME280;65200;49.500;8.654;2024-03-25T07:01:46;99773.81;;;9.78;63.78
76378;BME280;65200;49.500;8.654;2024-03-25T07:04:12;99777.19;;;10.00;62.73
76378;BME280;65200;49.500;8.654;2024-03-25T07:06:38;99779.41;;;9.90;63.11
76378;BME280;65200;49.500;8.654;2024-03-25T07:09:04;99775.72;;;11.03;59.87
76378;BME280;65200;49.500;8.654;2024-03-25T07:11:30;99769.13;;;10.92;60.13
76378;BME280;65200;49.500;8.654;2024-03-25T07:13:56;99776.69;;;10.24;61.31
76378;BME280;65200;49.500;8.654;2024-03-25T07:16:22;99776.75;;;11.15;59.58
76378;BME280;65200;49.500;8.654;2024-03-25T07:18:49;99774.84;;;11.42;58.68
76378;BME280;65200;49.500;8.654;2024-03-25T07:21:15;99774.81;;;12.12;56.60
76378;BME280;65200;49.500;8.654;2024-03-25T07:23:40;99775.00;;;12.17;55.49
76378;BME280;65200;49.500;8.654;2024-03-25T07:26:06;99775.19;;;12.22;55.76
76378;BME280;65200;49.500;8.654;2024-03-25T07:28:32;99767.28;;;11.89;57.12
76378;BME280;65200;49.500;8.654;2024-03-25T07:30:58;99764.38;;;12.35;55.76
76378;BME280;65200;49.500;8.654;2024-03-25T07:33:24;99761.41;;;12.43;55.25
76378;BME280;65200;49.500;8.654;2024-03-25T07:35:51;99769.25;;;12.07;57.93
76378;BME280;65200;49.500;8.654;2024-03-25T07:38:17;99756.75;;;12.63;57.04
76378;BME280;65200;49.500;8.654;2024-03-25T07:40:42;99765.00;;;13.17;53.52
76378;BME280;65200;49.500;8.654;2024-03-25T07:43:08;99762.16;;;12.57;56.49
76378;BME280;65200;49.500;8.654;2024-03-25T07:45:35;99766.25;;;12.90;54.13
76378;BME280;65200;49.500;8.654;2024-03-25T07:48:01;99756.94;;;12.93;54.60
76378;BME280;65200;49.500;8.654;2024-03-25T07:50:26;99758.06;;;12.48;55.67
76378;BME280;65200;49.500;8.654;2024-03-25T07:52:54;99758.81;;;12.61;56.47
76378;BME280;65200;49.500;8.654;2024-03-25T07:55:20;99752.06;;;12.77;54.36
76378;BME280;65200;49.500;8.654;2024-03-25T07:57:45;99762.59;;;12.22;55.70
76378;BME280;65200;49.500;8.654;2024-03-25T08:00:12;99769.72;;;12.97;56.13
76378;BME280;65200;49.500;8.654;2024-03-25T08:02:38;99764.28;;;12.48;55.53
76378;BME280;65200;49.500;8.654;2024-03-25T08:05:05;99760.91;;;12.59;57.84
76378;BME280;65200;49.500;8.654;2024-03-25T08:07:31;99758.47;;;12.51;56.78
76378;BME280;65200;49.500;8.654;2024-03-25T08:09:58;99755.91;;;12.63;55.34
76378;BME280;65200;49.500;8.654;2024-03-25T08:12:23;99751.38;;;12.63;57.29
76378;BME280;65200;49.500;8.654;2024-03-25T08:14:49;99758.31;;;12.08;55.55
76378;BME280;65200;49.500;8.654;2024-03-25T08:17:15;99760.56;;;12.18;56.13
76378;BME280;65200;49.500;8.654;2024-03-25T08:19:41;99753.44;;;12.61;56.36
76378;BME280;65200;49.500;8.654;2024-03-25T08:22:07;99763.66;;;12.46;57.31
76378;BME280;65200;49.500;8.654;2024-03-25T08:24:32;99749.03;;;12.42;56.93
76378;BME280;65200;49.500;8.654;2024-03-25T08:27:00;99751.75;;;12.67;56.31
76378;BME280;65200;49.500;8.654;2024-03-25T08:29:25;99749.84;;;12.42;57.84
76378;BME280;65200;49.500;8.654;2024-03-25T08:31:51;99737.50;;;13.15;54.77
76378;BME280;65200;49.500;8.654;2024-03-25T08:34:17;99738.34;;;13.34;53.31
76378;BME280;65200;49.500;8.654;2024-03-25T08:36:43;99733.28;;;13.01;55.05
76378;BME280;65200;49.500;8.654;2024-03-25T08:39:09;99731.34;;;12.84;54.07
76378;BME280;65200;49.500;8.654;2024-03-25T08:41:35;99735.75;;;12.78;53.89
76378;BME280;65200;49.500;8.654;2024-03-25T08:44:02;99737.84;;;12.14;56.61
76378;BME280;65200;49.500;8.654;2024-03-25T08:46:30;99738.09;;;12.68;52.65
76378;BME280;65200;49.500;8.654;2024-03-25T08:48:56;99730.66;;;12.64;52.34
76378;BME280;65200;49.500;8.654;2024-03-25T08:51:22;99723.09;;;13.28;51.47
76378;BME280;65200;49.500;8.654;2024-03-25T08:53:48;99724.41;;;13.37;49.38
76378;BME280;65200;49.500;8.654;2024-03-25T08:56:14;99729.75;;;13.25;48.10
76378;BME280;65200;49.500;8.654;2024-03-25T08:58:40;99736.47;;;13.70;47.36
76378;BME280;65200;49.500;8.654;2024-03-25T09:01:08;99734.09;;;13.44;43.64
76378;BME280;65200;49.500;8.654;2024-03-25T09:03:34;99735.88;;;13.50;44.11
76378;BME280;65200;49.500;8.654;2024-03-25T09:05:59;99734.69;;;12.79;48.13
76378;BME280;65200;49.500;8.654;2024-03-25T09:08:25;99734.34;;;12.69;46.77
76378;BME280;65200;49.500;8.654;2024-03-25T09:10:51;99729.44;;;13.15;45.21
76378;BME280;65200;49.500;8.654;2024-03-25T09:13:30;99735.66;;;13.52;44.87
76378;BME280;65200;49.500;8.654;2024-03-25T09:15:55;99729.34;;;13.58;44.76
76378;BME280;65200;49.500;8.654;2024-03-25T09:18:23;99725.25;;;13.55;46.40
76378;BME280;65200;49.500;8.654;2024-03-25T09:20:48;99713.44;;;13.38;45.13
76378;BME280;65200;49.500;8.654;2024-03-25T09:23:14;99713.59;;;13.25;46.37
76378;BME280;65200;49.500;8.654;2024-03-25T09:25:50;99708.19;;;14.27;44.55
76378;BME280;65200;49.500;8.654;2024-03-25T09:28:17;99708.09;;;13.86;43.28
76378;BME280;65200;49.500;8.654;2024-03-25T09:30:43;99702.34;;;14.12;44.17
76378;BME280;65200;49.500;8.654;2024-03-25T09:33:09;99696.56;;;14.27;42.52
76378;BME280;65200;49.500;8.654;2024-03-25T09:35:36;99686.78;;;14.44;42.02
76378;BME280;65200;49.500;8.654;2024-03-25T09:38:03;99689.63;;;15.18;41.04
76378;BME280;65200;49.500;8.654;2024-03-25T09:40:29;99681.53;;;14.83;42.97
76378;BME280;65200;49.500;8.654;2024-03-25T09:42:56;99675.13;;;14.96;42.26
76378;BME280;65200;49.500;8.654;2024-03-25T09:45:24;99670.75;;;14.95;41.56
76378;BME280;65200;49.500;8.654;2024-03-25T09:47:51;99657.22;;;15.30;45.28
76378;BME280;65200;49.500;8.654;2024-03-25T09:50:17;99661.31;;;15.32;42.70
76378;BME280;65200;49.500;8.654;2024-03-25T09:52:45;99652.22;;;14.64;44.88
76378;BME280;65200;49.500;8.654;2024-03-25T09:55:11;99643.53;;;14.09;44.27
76378;BME280;65200;49.500;8.654;2024-03-25T09:57:37;99644.72;;;14.66;43.21
76378;BME280;65200;49.500;8.654;2024-03-25T10:00:05;99642.03;;;14.89;41.75
76378;BME280;65200;49.500;8.654;2024-03-25T10:02:33;99640.75;;;14.68;42.17
76378;BME280;65200;49.500;8.654;2024-03-25T10:04:59;99633.91;;;14.66;41.33
76378;BME280;65200;49.500;8.654;2024-03-25T10:07:25;99631.09;;;14.61;41.54
76378;BME280;65200;49.500;8.654;2024-03-25T10:09:53;99634.56;;;15.42;42.67
76378;BME280;65200;49.500;8.654;2024-03-25T10:12:18;99638.44;;;15.35;39.63
76378;BME280;65200;49.500;8.654;2024-03-25T10:14:44;99637.59;;;15.34;41.57
76378;BME280;65200;49.500;8.654;2024-03-25T10:17:10;99630.38;;;15.23;42.42
76378;BME280;65200;49.500;8.654;2024-03-25T10:19:36;99632.09;;;15.29;42.37
76378;BME280;65200;49.500;8.654;2024-03-25T10:22:03;99624.69;;;15.48;41.40
76378;BME280;65200;49.500;8.654;2024-03-25T10:24:37;99620.69;;;14.87;42.24
76378;BME280;65200;49.500;8.654;2024-03-25T10:27:05;99621.91;;;15.20;40.90
76378;BME280;65200;49.500;8.654;2024-03-25T10:29:31;99611.78;;;15.38;40.71
76378;BME280;65200;49.500;8.654;2024-03-25T10:32:00;99622.63;;;15.94;40.66
76378;BME280;65200;49.500;8.654;2024-03-25T10:34:27;99611.75;;;16.06;40.50
76378;BME280;65200;49.500;8.654;2024-03-25T10:36:56;99615.97;;;15.57;40.57
76378;BME280;65200;49.500;8.654;2024-03-25T10:39:26;99614.38;;;15.33;38.40
76378;BME280;65200;49.500;8.654;2024-03-25T10:41:57;99604.41;;;16.18;39.29
76378;BME280;65200;49.500;8.654;2024-03-25T10:44:24;99614.41;;;15.61;38.29
76378;BME280;65200;49.500;8.654;2024-03-25T10:46:55;99603.22;;;15.97;38.13
76378;BME280;65200;49.500;8.654;2024-03-25T10:49:33;99596.75;;;15.98;37.61
76378;BME280;65200;49.500;8.654;2024-03-25T10:52:01;99595.34;;;16.57;39.27
76378;BME280;65200;49.500;8.654;2024-03-25T10:54:29;99594.56;;;16.28;37.22
76378;BME280;65200;49.500;8.654;2024-03-25T10:56:58;99589.44;;;16.82;37.64
76378;BME280;65200;49.500;8.654;2024-03-25T10:59:26;99586.78;;;17.03;36.91
76378;BME280;65200;49.500;8.654;2024-03-25T11:01:52;99586.66;;;16.93;35.83
76378;BME280;65200;49.500;8.654;2024-03-25T11:04:18;99586.69;;;16.10;36.58
76378;BME280;65200;49.500;8.654;2024-03-25T11:06:45;99574.41;;;16.69;36.14
76378;BME280;65200;49.500;8.654;2024-03-25T11:09:21;99568.66;;;16.66;37.61
76378;BME280;65200;49.500;8.654;2024-03-25T11:11:48;99570.16;;;16.95;36.59
76378;BME280;65200;49.500;8.654;2024-03-25T11:14:15;99557.59;;;17.27;37.15
76378;BME280;65200;49.500;8.654;2024-03-25T11:16:42;99549.00;;;16.92;34.78
76378;BME280;65200;49.500;8.654;2024-03-25T11:19:11;99549.75;;;16.49;35.41
76378;BME280;65200;49.500;8.654;2024-03-25T11:21:37;99550.16;;;15.35;39.33
76378;BME280;65200;49.500;8.654;2024-03-25T11:24:06;99549.00;;;15.31;39.08
76378;BME280;65200;49.500;8.654;2024-03-25T11:26:33;99537.59;;;15.69;37.89
76378;BME280;65200;49.500;8.654;2024-03-25T11:28:59;99532.13;;;15.80;39.21
76378;BME280;65200;49.500;8.654;2024-03-25T11:31:29;99524.94;;;16.52;34.50
76378;BME280;65200;49.500;8.654;2024-03-25T11:34:03;99517.16;;;16.99;34.46
76378;BME280;65200;49.500;8.654;2024-03-25T11:36:29;99512.06;;;16.09;35.27
76378;BME280;65200;49.500;8.654;2024-03-25T11:38:59;99516.31;;;16.05;35.11
76378;BME280;65200;49.500;8.654;2024-03-25T11:41:25;99506.38;;;16.82;35.08
76378;BME280;65200;49.500;8.654;2024-03-25T11:43:51;99498.81;;;17.27;36.73
76378;BME280;65200;49.500;8.654;2024-03-25T11:46:18;99501.56;;;16.84;40.11
76378;BME280;65200;49.500;8.654;2024-03-25T11:48:44;99501.56;;;16.84;38.62
76378;BME280;65200;49.500;8.654;2024-03-25T11:51:12;99491.97;;;16.38;40.82
76378;BME280;65200;49.500;8.654;2024-03-25T11:53:38;99493.72;;;16.11;37.89
76378;BME280;65200;49.500;8.654;2024-03-25T11:56:05;99483.75;;;16.67;36.70
76378;BME280;65200;49.500;8.654;2024-03-25T11:58:31;99476.56;;;16.99;32.65
76378;BME280;65200;49.500;8.654;2024-03-25T12:00:57;99473.78;;;16.94;37.67
76378;BME280;65200;49.500;8.654;2024-03-25T12:03:26;99470.41;;;16.43;37.73
76378;BME280;65200;49.500;8.654;2024-03-25T12:05:52;99466.34;;;16.63;34.99
76378;BME280;65200;49.500;8.654;2024-03-25T12:08:19;99462.75;;;16.19;38.52
76378;BME280;65200;49.500;8.654;2024-03-25T12:10:45;99466.47;;;16.51;35.22
76378;BME280;65200;49.500;8.654;2024-03-25T12:13:29;99452.38;;;17.14;32.43
76378;BME280;65200;49.500;8.654;2024-03-25T12:15:55;99451.81;;;17.38;32.78
76378;BME280;65200;49.500;8.654;2024-03-25T12:18:21;99446.19;;;16.97;35.36
76378;BME280;65200;49.500;8.654;2024-03-25T12:20:48;99442.28;;;16.23;36.38
76378;BME280;65200;49.500;8.654;2024-03-25T12:23:14;99436.56;;;15.53;35.55
76378;BME280;65200;49.500;8.654;2024-03-25T12:25:41;99434.25;;;15.45;38.56
76378;BME280;65200;49.500;8.654;2024-03-25T12:28:13;99437.81;;;15.62;35.10
76378;BME280;65200;49.500;8.654;2024-03-25T12:30:49;99436.16;;;15.45;35.80
76378;BME280;65200;49.500;8.654;2024-03-25T12:33:15;99434.19;;;15.90;35.06
76378;BME280;65200;49.500;8.654;2024-03-25T12:35:41;99429.72;;;16.77;34.56
76378;BME280;65200;49.500;8.654;2024-03-25T12:38:07;99420.81;;;16.55;33.60
76378;BME280;65200;49.500;8.654;2024-03-25T12:40:33;99417.78;;;16.34;33.21
76378;BME280;65200;49.500;8.654;2024-03-25T12:43:00;99415.19;;;17.04;32.17
76378;BME280;65200;49.500;8.654;2024-03-25T12:45:26;99407.38;;;17.13;32.11
76378;BME280;65200;49.500;8.654;2024-03-25T12:47:52;99394.19;;;16.95;31.90
76378;BME280;65200;49.500;8.654;2024-03-25T12:50:18;99386.53;;;16.87;31.57
76378;BME280;65200;49.500;8.654;2024-03-25T12:52:44;99384.28;;;16.79;35.38
76378;BME280;65200;49.500;8.654;2024-03-25T12:55:12;99381.53;;;16.74;31.71
76378;BME280;65200;49.500;8.654;2024-03-25T12:57:37;99369.50;;;16.86;33.72
76378;BME280;65200;49.500;8.654;2024-03-25T13:00:06;99370.28;;;16.60;35.89
76378;BME280;65200;49.500;8.654;2024-03-25T13:02:34;99358.38;;;16.83;35.36